sensor_id;sensor_type;location;lat;lon;timestamp;P1;durP1;ratioP1;P2;durP2;ratioP2
8665;SDS011;4370;48.916;8.380;2023-04-15T00:01:18;4.33;;;2.00;;
8665;SDS011;4370;48.916;8.380;2023-04-15T00:03:44;5.30;;;2.10;;
8665;SDS011;4370;48.916;8.380;2023-04-15T00:06:11;4.63;;;2.30;;
8665;SDS011;4370;48.916;8.380;2023-04-15T00:08:37;7.37;;;2.43;;
8665;SDS011;4370;48.916;8.380;2023-04-15T00:11:03;3.90;;;2.20;;
8665;SDS011;4370;48.916;8.380;2023-04-15T00:13:30;4.03;;;2.20;;
8665;SDS011;4370;48.916;8.380;2023-04-15T00:15:59;3.77;;;2.37;;
8665;SDS011;4370;48.916;8.380;2023-04-15T00:18:25;5.07;;;2.57;;
8665;SDS011;4370;48.916;8.380;2023-04-15T00:20:51;5.83;;;2.40;;
8665;SDS011;4370;48.916;8.380;2023-04-15T00:23:17;2.80;;;2.33;;
8665;SDS011;4370;48.916;8.380;2023-04-15T00:25:43;3.93;;;2.50;;
8665;SDS011;4370;48.916;8.380;2023-04-15T00:28:09;3.73;;;2.30;;
8665;SDS011;4370;48.916;8.380;2023-04-15T00:30:35;2.97;;;2.37;;
8665;SDS011;4370;48.916;8.380;2023-04-15T00:33:01;2.80;;;2.13;;
8665;SDS011;4370;48.916;8.380;2023-04-15T00:35:27;3.63;;;2.20;;
8665;SDS011;4370;48.916;8.380;2023-04-15T00:37:53;4.17;;;2.20;;
8665;SDS011;4370;48.916;8.380;2023-04-15T00:40:20;4.57;;;2.50;;
8665;SDS011;4370;48.916;8.380;2023-04-15T00:42:48;4.60;;;2.13;;
8665;SDS011;4370;48.916;8.380;2023-04-15T00:45:14;6.23;;;2.63;;
8665;SDS011;4370;48.916;8.380;2023-04-15T00:47:40;3.47;;;2.57;;
8665;SDS011;4370;48.916;8.380;2023-04-15T00:50:07;4.50;;;2.97;;
8665;SDS011;4370;48.916;8.380;2023-04-15T00:52:33;2.50;;;2.30;;
8665;SDS011;4370;48.916;8.380;2023-04-15T00:55:00;2.80;;;2.10;;
8665;SDS011;4370;48.916;8.380;2023-04-15T00:57:26;3.43;;;2.30;;
8665;SDS011;4370;48.916;8.380;2023-04-15T00:59:53;3.17;;;2.30;;
8665;SDS011;4370;48.916;8.380;2023-04-15T01:02:21;5.07;;;2.50;;
8665;SDS011;4370;48.916;8.380;2023-04-15T01:04:46;3.70;;;2.20;;
8665;SDS011;4370;48.916;8.380;2023-04-15T01:07:12;4.27;;;2.50;;
8665;SDS011;4370;48.916;8.380;2023-04-15T01:09:38;3.33;;;2.20;;
8665;SDS011;4370;48.916;8.380;2023-04-15T01:12:04;3.03;;;2.33;;
8665;SDS011;4370;48.916;8.380;2023-04-15T01:14:31;2.60;;;2.33;;
8665;SDS011;4370;48.916;8.380;2023-04-15T01:16:58;4.03;;;2.53;;
8665;SDS011;4370;48.916;8.380;2023-04-15T01:19:23;5.23;;;2.60;;
8665;SDS011;4370;48.916;8.380;2023-04-15T01:21:50;3.93;;;2.60;;
8665;SDS011;4370;48.916;8.380;2023-04-15T01:24:16;2.47;;;2.27;;
8665;SDS011;4370;48.916;8.380;2023-04-15T01:26:43;11.43;;;3.37;;
8665;SDS011;4370;48.916;8.380;2023-04-15T01:29:09;5.47;;;2.80;;
8665;SDS011;4370;48.916;8.380;2023-04-15T01:31:35;3.03;;;2.50;;
8665;SDS011;4370;48.916;8.380;2023-04-15T01:34:01;4.30;;;2.50;;
8665;SDS011;4370;48.916;8.380;2023-04-15T01:36:27;5.03;;;2.50;;
8665;SDS011;4370;48.916;8.380;2023-04-15T01:38:54;4.80;;;2.60;;
8665;SDS011;4370;48.916;8.380;2023-04-15T01:41:24;2.87;;;2.23;;
8665;SDS011;4370;48.916;8.380;2023-04-15T01:43:50;3.57;;;2.30;;
8665;SDS011;4370;48.916;8.380;2023-04-15T01:46:16;4.30;;;2.37;;
8665;SDS011;4370;48.916;8.380;2023-04-15T01:48:42;4.10;;;2.17;;
8665;SDS011;4370;48.916;8.380;2023-04-15T01:51:08;4.40;;;2.63;;
8665;SDS011;4370;48.916;8.380;2023-04-15T01:53:34;3.10;;;2.20;;
8665;SDS011;4370;48.916;8.380;2023-04-15T01:56:00;3.70;;;2.10;;
8665;SDS011;4370;48.916;8.380;2023-04-15T01:58:26;3.77;;;2.47;;
8665;SDS011;4370;48.916;8.380;2023-04-15T02:00:51;2.40;;;2.10;;
8665;SDS011;4370;48.916;8.380;2023-04-15T02:03:17;2.43;;;2.10;;
8665;SDS011;4370;48.916;8.380;2023-04-15T02:05:43;3.07;;;1.77;;
8665;SDS011;4370;48.916;8.380;2023-04-15T02:08:09;2.57;;;2.30;;
8665;SDS011;4370;48.916;8.380;2023-04-15T02:10:35;2.40;;;2.20;;
8665;SDS011;4370;48.916;8.380;2023-04-15T02:13:01;2.97;;;2.20;;
8665;SDS011;4370;48.916;8.380;2023-04-15T02:15:27;2.53;;;2.07;;
8665;SDS011;4370;48.916;8.380;2023-04-15T02:17:52;2.20;;;2.00;;
8665;SDS011;4370;48.916;8.380;2023-04-15T02:20:19;2.60;;;2.17;;
8665;SDS011;4370;48.916;8.380;2023-04-15T02:22:45;5.63;;;3.40;;
8665;SDS011;4370;48.916;8.380;2023-04-15T02:25:12;5.23;;;2.73;;
8665;SDS011;4370;48.916;8.380;2023-04-15T02:27:38;5.73;;;3.27;;
8665;SDS011;4370;48.916;8.380;2023-04-15T02:30:04;5.30;;;2.90;;
8665;SDS011;4370;48.916;8.380;2023-04-15T02:32:31;6.70;;;2.87;;
8665;SDS011;4370;48.916;8.380;2023-04-15T02:35:01;3.70;;;2.90;;
8665;SDS011;4370;48.916;8.380;2023-04-15T02:37:27;3.57;;;2.80;;
8665;SDS011;4370;48.916;8.380;2023-04-15T02:39:54;4.27;;;3.17;;
8665;SDS011;4370;48.916;8.380;2023-04-15T02:42:20;5.63;;;3.00;;
8665;SDS011;4370;48.916;8.380;2023-04-15T02:44:45;7.20;;;3.20;;
8665;SDS011;4370;48.916;8.380;2023-04-15T02:47:11;3.60;;;2.73;;
8665;SDS011;4370;48.916;8.380;2023-04-15T02:49:38;4.27;;;2.90;;
8665;SDS011;4370;48.916;8.380;2023-04-15T02:52:04;4.30;;;2.90;;
8665;SDS011;4370;48.916;8.380;2023-04-15T02:54:31;5.60;;;3.07;;
8665;SDS011;4370;48.916;8.380;2023-04-15T02:56:58;3.77;;;2.20;;
8665;SDS011;4370;48.916;8.380;2023-04-15T02:59:24;4.77;;;2.83;;
8665;SDS011;4370;48.916;8.380;2023-04-15T03:01:49;3.83;;;2.40;;
8665;SDS011;4370;48.916;8.380;2023-04-15T03:04:15;3.53;;;2.53;;
8665;SDS011;4370;48.916;8.380;2023-04-15T03:06:41;5.13;;;2.50;;
8665;SDS011;4370;48.916;8.380;2023-04-15T03:09:07;2.67;;;2.40;;
8665;SDS011;4370;48.916;8.380;2023-04-15T03:11:34;6.17;;;2.67;;
8665;SDS011;4370;48.916;8.380;2023-04-15T03:14:04;4.33;;;2.60;;
8665;SDS011;4370;48.916;8.380;2023-04-15T03:16:30;4.40;;;2.60;;
8665;SDS011;4370;48.916;8.380;2023-04-15T03:18:56;5.17;;;2.60;;
8665;SDS011;4370;48.916;8.380;2023-04-15T03:21:22;4.97;;;2.47;;
8665;SDS011;4370;48.916;8.380;2023-04-15T03:23:48;5.43;;;2.73;;
8665;SDS011;4370;48.916;8.380;2023-04-15T03:26:27;4.60;;;2.70;;
8665;SDS011;4370;48.916;8.380;2023-04-15T03:28:56;5.40;;;2.57;;
8665;SDS011;4370;48.916;8.380;2023-04-15T03:31:22;2.53;;;2.33;;
8665;SDS011;4370;48.916;8.380;2023-04-15T03:33:48;4.20;;;3.00;;
8665;SDS011;4370;48.916;8.380;2023-04-15T03:36:14;3.50;;;2.40;;
8665;SDS011;4370;48.916;8.380;2023-04-15T03:38:40;3.13;;;2.50;;
8665;SDS011;4370;48.916;8.380;2023-04-15T03:41:07;3.10;;;2.57;;
8665;SDS011;4370;48.916;8.380;2023-04-15T03:43:33;5.20;;;2.70;;
8665;SDS011;4370;48.916;8.380;2023-04-15T03:45:59;9.63;;;3.90;;
8665;SDS011;4370;48.916;8.380;2023-04-15T03:48:25;5.03;;;3.17;;
8665;SDS011;4370;48.916;8.380;2023-04-15T03:50:51;4.20;;;2.90;;
8665;SDS011;4370;48.916;8.380;2023-04-15T03:53:17;3.97;;;2.60;;
8665;SDS011;4370;48.916;8.380;2023-04-15T03:55:43;4.57;;;2.60;;
8665;SDS011;4370;48.916;8.380;2023-04-15T03:58:09;8.90;;;3.53;;
8665;SDS011;4370;48.916;8.380;2023-04-15T04:00:36;6.93;;;2.90;;
8665;SDS011;4370;48.916;8.380;2023-04-15T04:03:02;6.97;;;2.70;;
8665;SDS011;4370;48.916;8.380;2023-04-15T04:05:28;3.80;;;2.20;;
8665;SDS011;4370;48.916;8.380;2023-04-15T04:07:54;3.37;;;2.27;;
8665;SDS011;4370;48.916;8.380;2023-04-15T04:10:20;2.93;;;2.40;;
8665;SDS011;4370;48.916;8.380;2023-04-15T04:12:46;3.20;;;2.57;;
8665;SDS011;4370;48.916;8.380;2023-04-15T04:15:12;5.33;;;3.40;;
8665;SDS011;4370;48.916;8.380;2023-04-15T04:17:38;6.50;;;4.40;;
8665;SDS011;4370;48.916;8.380;2023-04-15T04:20:04;5.80;;;3.33;;
8665;SDS011;4370;48.916;8.380;2023-04-15T04:22:33;5.57;;;3.67;;
8665;SDS011;4370;48.916;8.380;2023-04-15T04:25:01;8.83;;;4.10;;
8665;SDS011;4370;48.916;8.380;2023-04-15T04:27:27;5.53;;;3.27;;
8665;SDS011;4370;48.916;8.380;2023-04-15T04:29:53;4.50;;;3.30;;
8665;SDS011;4370;48.916;8.380;2023-04-15T04:32:18;6.40;;;3.27;;
8665;SDS011;4370;48.916;8.380;2023-04-15T04:34:44;5.10;;;3.20;;
8665;SDS011;4370;48.916;8.380;2023-04-15T04:37:11;3.63;;;3.00;;
8665;SDS011;4370;48.916;8.380;2023-04-15T04:39:36;6.83;;;3.53;;
8665;SDS011;4370;48.916;8.380;2023-04-15T04:42:02;4.10;;;2.83;;
8665;SDS011;4370;48.916;8.380;2023-04-15T04:44:28;4.10;;;2.90;;
8665;SDS011;4370;48.916;8.380;2023-04-15T04:46:54;6.00;;;2.73;;
8665;SDS011;4370;48.916;8.380;2023-04-15T04:49:20;9.47;;;2.87;;
8665;SDS011;4370;48.916;8.380;2023-04-15T04:51:45;5.50;;;3.00;;
8665;SDS011;4370;48.916;8.380;2023-04-15T04:54:12;3.43;;;2.33;;
8665;SDS011;4370;48.916;8.380;2023-04-15T04:56:37;3.07;;;2.43;;
8665;SDS011;4370;48.916;8.380;2023-04-15T04:59:04;3.40;;;2.40;;
8665;SDS011;4370;48.916;8.380;2023-04-15T05:01:29;5.57;;;3.33;;
8665;SDS011;4370;48.916;8.380;2023-04-15T05:03:55;3.03;;;2.33;;
8665;SDS011;4370;48.916;8.380;2023-04-15T05:06:21;3.97;;;2.40;;
8665;SDS011;4370;48.916;8.380;2023-04-15T05:08:47;5.87;;;2.87;;
8665;SDS011;4370;48.916;8.380;2023-04-15T05:11:13;10.50;;;3.10;;
8665;SDS011;4370;48.916;8.380;2023-04-15T05:13:38;3.53;;;2.27;;
8665;SDS011;4370;48.916;8.380;2023-04-15T05:16:04;4.23;;;2.33;;
8665;SDS011;4370;48.916;8.380;2023-04-15T05:18:30;2.90;;;2.37;;
8665;SDS011;4370;48.916;8.380;2023-04-15T05:20:56;2.63;;;2.17;;
8665;SDS011;4370;48.916;8.380;2023-04-15T05:23:23;4.23;;;2.30;;
8665;SDS011;4370;48.916;8.380;2023-04-15T05:25:48;3.17;;;2.13;;
8665;SDS011;4370;48.916;8.380;2023-04-15T05:28:14;3.30;;;2.37;;
8665;SDS011;4370;48.916;8.380;2023-04-15T05:30:40;4.47;;;2.33;;
8665;SDS011;4370;48.916;8.380;2023-04-15T05:33:06;4.73;;;2.57;;
8665;SDS011;4370;48.916;8.380;2023-04-15T05:35:32;4.53;;;2.30;;
8665;SDS011;4370;48.916;8.380;2023-04-15T05:37:58;3.07;;;2.17;;
8665;SDS011;4370;48.916;8.380;2023-04-15T05:40:24;3.30;;;2.00;;
8665;SDS011;4370;48.916;8.380;2023-04-15T05:42:50;3.97;;;2.27;;
8665;SDS011;4370;48.916;8.380;2023-04-15T05:45:16;3.23;;;2.10;;
8665;SDS011;4370;48.916;8.380;2023-04-15T05:47:42;4.27;;;2.27;;
8665;SDS011;4370;48.916;8.380;2023-04-15T05:50:08;5.53;;;2.73;;
8665;SDS011;4370;48.916;8.380;2023-04-15T05:52:35;4.17;;;2.80;;
8665;SDS011;4370;48.916;8.380;2023-04-15T05:55:01;4.83;;;3.00;;
8665;SDS011;4370;48.916;8.380;2023-04-15T05:57:27;5.77;;;3.00;;
8665;SDS011;4370;48.916;8.380;2023-04-15T05:59:53;4.27;;;3.00;;
8665;SDS011;4370;48.916;8.380;2023-04-15T06:02:21;3.90;;;2.50;;
8665;SDS011;4370;48.916;8.380;2023-04-15T06:04:47;2.67;;;2.40;;
8665;SDS011;4370;48.916;8.380;2023-04-15T06:07:12;5.10;;;2.70;;
8665;SDS011;4370;48.916;8.380;2023-04-15T06:09:39;3.17;;;2.37;;
8665;SDS011;4370;48.916;8.380;2023-04-15T06:12:05;3.60;;;2.77;;
8665;SDS011;4370;48.916;8.380;2023-04-15T06:14:35;5.83;;;2.50;;
8665;SDS011;4370;48.916;8.380;2023-04-15T06:17:01;6.27;;;2.53;;
8665;SDS011;4370;48.916;8.380;2023-04-15T06:19:27;3.70;;;2.10;;
8665;SDS011;4370;48.916;8.380;2023-04-15T06:21:53;2.57;;;2.03;;
8665;SDS011;4370;48.916;8.380;2023-04-15T06:24:19;2.90;;;2.20;;
8665;SDS011;4370;48.916;8.380;2023-04-15T06:26:45;3.30;;;2.40;;
8665;SDS011;4370;48.916;8.380;2023-04-15T06:29:10;3.63;;;2.40;;
8665;SDS011;4370;48.916;8.380;2023-04-15T06:31:36;4.67;;;2.30;;
8665;SDS011;4370;48.916;8.380;2023-04-15T06:34:02;3.07;;;2.23;;
8665;SDS011;4370;48.916;8.380;2023-04-15T06:36:28;3.63;;;2.40;;
8665;SDS011;4370;48.916;8.380;2023-04-15T06:38:53;3.70;;;2.30;;
8665;SDS011;4370;48.916;8.380;2023-04-15T06:41:21;4.03;;;2.07;;
8665;SDS011;4370;48.916;8.380;2023-04-15T06:43:46;5.47;;;2.50;;
8665;SDS011;4370;48.916;8.380;2023-04-15T06:46:12;6.40;;;2.17;;
8665;SDS011;4370;48.916;8.380;2023-04-15T06:48:38;4.13;;;2.10;;
8665;SDS011;4370;48.916;8.380;2023-04-15T06:51:04;3.27;;;2.20;;
8665;SDS011;4370;48.916;8.380;2023-04-15T06:53:30;5.63;;;2.50;;
8665;SDS011;4370;48.916;8.380;2023-04-15T06:55:56;5.37;;;2.30;;
8665;SDS011;4370;48.916;8.380;2023-04-15T06:58:22;7.83;;;2.57;;
8665;SDS011;4370;48.916;8.380;2023-04-15T07:00:48;4.50;;;2.47;;
8665;SDS011;4370;48.916;8.380;2023-04-15T07:03:14;4.97;;;2.60;;
8665;SDS011;4370;48.916;8.380;2023-04-15T07:05:40;4.23;;;2.33;;
8665;SDS011;4370;48.916;8.380;2023-04-15T07:08:05;5.57;;;2.70;;
8665;SDS011;4370;48.916;8.380;2023-04-15T07:10:35;6.77;;;3.10;;
8665;SDS011;4370;48.916;8.380;2023-04-15T07:13:01;5.13;;;2.83;;
8665;SDS011;4370;48.916;8.380;2023-04-15T07:15:26;4.73;;;2.70;;
8665;SDS011;4370;48.916;8.380;2023-04-15T07:17:52;4.03;;;2.60;;
8665;SDS011;4370;48.916;8.380;2023-04-15T07:20:18;4.73;;;2.63;;
8665;SDS011;4370;48.916;8.380;2023-04-15T07:22:44;8.23;;;2.80;;
8665;SDS011;4370;48.916;8.380;2023-04-15T07:25:10;5.97;;;2.87;;
8665;SDS011;4370;48.916;8.380;2023-04-15T07:27:36;5.57;;;2.90;;
8665;SDS011;4370;48.916;8.380;2023-04-15T07:30:02;4.53;;;2.30;;
8665;SDS011;4370;48.916;8.380;2023-04-15T07:32:28;4.77;;;2.57;;
8665;SDS011;4370;48.916;8.380;2023-04-15T07:34:54;4.50;;;3.00;;
8665;SDS011;4370;48.916;8.380;2023-04-15T07:37:20;7.97;;;2.90;;
8665;SDS011;4370;48.916;8.380;2023-04-15T07:39:47;8.33;;;2.73;;
8665;SDS011;4370;48.916;8.380;2023-04-15T07:42:13;5.13;;;2.67;;
8665;SDS011;4370;48.916;8.380;2023-04-15T07:44:39;4.07;;;2.57;;
8665;SDS011;4370;48.916;8.380;2023-04-15T07:47:05;4.33;;;2.63;;
8665;SDS011;4370;48.916;8.380;2023-04-15T07:49:31;5.17;;;2.70;;
8665;SDS011;4370;48.916;8.380;2023-04-15T07:51:56;6.20;;;2.93;;
8665;SDS011;4370;48.916;8.380;2023-04-15T07:54:24;4.13;;;2.70;;
8665;SDS011;4370;48.916;8.380;2023-04-15T07:56:49;4.63;;;2.70;;
8665;SDS011;4370;48.916;8.380;2023-04-15T07:59:16;5.27;;;2.60;;
8665;SDS011;4370;48.916;8.380;2023-04-15T08:01:42;4.60;;;2.60;;
8665;SDS011;4370;48.916;8.380;2023-04-15T08:04:08;5.90;;;2.57;;
8665;SDS011;4370;48.916;8.380;2023-04-15T08:06:34;4.40;;;3.00;;
8665;SDS011;4370;48.916;8.380;2023-04-15T08:09:03;5.30;;;2.87;;
8665;SDS011;4370;48.916;8.380;2023-04-15T08:11:29;5.20;;;3.10;;
8665;SDS011;4370;48.916;8.380;2023-04-15T08:13:55;5.80;;;3.20;;
8665;SDS011;4370;48.916;8.380;2023-04-15T08:16:22;5.87;;;3.30;;
8665;SDS011;4370;48.916;8.380;2023-04-15T08:18:49;6.17;;;3.30;;
8665;SDS011;4370;48.916;8.380;2023-04-15T08:21:16;6.63;;;3.13;;
8665;SDS011;4370;48.916;8.380;2023-04-15T08:23:43;5.80;;;3.07;;
8665;SDS011;4370;48.916;8.380;2023-04-15T08:26:09;6.00;;;2.83;;
8665;SDS011;4370;48.916;8.380;2023-04-15T08:28:36;5.93;;;2.90;;
8665;SDS011;4370;48.916;8.380;2023-04-15T08:31:02;7.80;;;3.20;;
8665;SDS011;4370;48.916;8.380;2023-04-15T08:33:28;6.37;;;3.17;;
8665;SDS011;4370;48.916;8.380;2023-04-15T08:35:54;9.20;;;3.23;;
8665;SDS011;4370;48.916;8.380;2023-04-15T08:38:20;7.73;;;3.40;;
8665;SDS011;4370;48.916;8.380;2023-04-15T08:40:46;6.07;;;3.30;;
8665;SDS011;4370;48.916;8.380;2023-04-15T08:45:44;5.97;;;3.07;;
8665;SDS011;4370;48.916;8.380;2023-04-15T08:48:12;4.47;;;2.70;;
8665;SDS011;4370;48.916;8.380;2023-04-15T08:50:42;5.40;;;3.30;;
8665;SDS011;4370;48.916;8.380;2023-04-15T08:53:08;4.83;;;3.17;;
8665;SDS011;4370;48.916;8.380;2023-04-15T08:55:35;5.90;;;2.87;;
8665;SDS011;4370;48.916;8.380;2023-04-15T08:58:07;5.97;;;3.50;;
8665;SDS011;4370;48.916;8.380;2023-04-15T09:00:34;5.60;;;3.10;;
8665;SDS011;4370;48.916;8.380;2023-04-15T09:03:00;6.70;;;2.73;;
8665;SDS011;4370;48.916;8.380;2023-04-15T09:05:26;4.93;;;2.83;;
8665;SDS011;4370;48.916;8.380;2023-04-15T09:07:52;4.07;;;2.60;;
8665;SDS011;4370;48.916;8.380;2023-04-15T09:10:18;5.03;;;2.93;;
8665;SDS011;4370;48.916;8.380;2023-04-15T09:12:43;6.20;;;3.03;;
8665;SDS011;4370;48.916;8.380;2023-04-15T09:15:10;5.07;;;2.80;;
8665;SDS011;4370;48.916;8.380;2023-04-15T09:17:41;6.33;;;2.97;;
8665;SDS011;4370;48.916;8.380;2023-04-15T09:22:35;4.80;;;2.50;;
8665;SDS011;4370;48.916;8.380;2023-04-15T09:25:02;4.40;;;2.60;;
8665;SDS011;4370;48.916;8.380;2023-04-15T09:27:28;8.30;;;3.00;;
8665;SDS011;4370;48.916;8.380;2023-04-15T09:29:54;5.67;;;2.80;;
8665;SDS011;4370;48.916;8.380;2023-04-15T09:32:20;5.23;;;2.80;;
8665;SDS011;4370;48.916;8.380;2023-04-15T09:34:47;3.73;;;2.60;;
8665;SDS011;4370;48.916;8.380;2023-04-15T09:37:13;7.97;;;3.13;;
8665;SDS011;4370;48.916;8.380;2023-04-15T09:39:49;5.60;;;2.30;;
8665;SDS011;4370;48.916;8.380;2023-04-15T09:42:16;4.50;;;2.37;;
8665;SDS011;4370;48.916;8.380;2023-04-15T09:44:48;6.10;;;3.03;;
8665;SDS011;4370;48.916;8.380;2023-04-15T09:47:30;4.50;;;2.23;;
8665;SDS011;4370;48.916;8.380;2023-04-15T09:49:57;5.07;;;2.23;;
8665;SDS011;4370;48.916;8.380;2023-04-15T09:52:23;6.37;;;2.60;;
8665;SDS011;4370;48.916;8.380;2023-04-15T09:54:50;3.40;;;2.00;;
8665;SDS011;4370;48.916;8.380;2023-04-15T09:57:19;4.33;;;2.27;;
8665;SDS011;4370;48.916;8.380;2023-04-15T09:59:45;5.83;;;1.93;;
8665;SDS011;4370;48.916;8.380;2023-04-15T10:02:11;4.20;;;2.33;;
8665;SDS011;4370;48.916;8.380;2023-04-15T10:04:38;3.13;;;2.20;;
8665;SDS011;4370;48.916;8.380;2023-04-15T10:07:05;4.83;;;2.10;;
8665;SDS011;4370;48.916;8.380;2023-04-15T10:09:36;5.23;;;2.37;;
8665;SDS011;4370;48.916;8.380;2023-04-15T10:12:03;6.10;;;2.20;;
8665;SDS011;4370;48.916;8.380;2023-04-15T10:14:33;4.73;;;2.20;;
8665;SDS011;4370;48.916;8.380;2023-04-15T10:17:03;6.57;;;2.50;;
8665;SDS011;4370;48.916;8.380;2023-04-15T10:19:32;3.07;;;2.53;;
8665;SDS011;4370;48.916;8.380;2023-04-15T10:22:01;3.87;;;2.20;;
8665;SDS011;4370;48.916;8.380;2023-04-15T10:24:28;7.13;;;2.67;;
8665;SDS011;4370;48.916;8.380;2023-04-15T10:26:56;6.03;;;2.50;;
8665;SDS011;4370;48.916;8.380;2023-04-15T10:29:23;5.83;;;2.30;;
8665;SDS011;4370;48.916;8.380;2023-04-15T10:31:51;6.33;;;2.70;;
8665;SDS011;4370;48.916;8.380;2023-04-15T10:34:18;4.93;;;2.50;;
8665;SDS011;4370;48.916;8.380;2023-04-15T10:36:45;4.60;;;2.73;;
8665;SDS011;4370;48.916;8.380;2023-04-15T10:42:05;7.33;;;2.70;;
8665;SDS011;4370;48.916;8.380;2023-04-15T10:44:31;7.83;;;3.10;;
8665;SDS011;4370;48.916;8.380;2023-04-15T10:46:57;4.77;;;2.50;;
8665;SDS011;4370;48.916;8.380;2023-04-15T10:49:24;4.07;;;2.40;;
8665;SDS011;4370;48.916;8.380;2023-04-15T10:51:50;3.93;;;2.27;;
8665;SDS011;4370;48.916;8.380;2023-04-15T10:59:30;5.20;;;2.70;;
8665;SDS011;4370;48.916;8.380;2023-04-15T11:02:00;5.23;;;2.83;;
8665;SDS011;4370;48.916;8.380;2023-04-15T11:07:35;5.33;;;3.00;;
8665;SDS011;4370;48.916;8.380;2023-04-15T11:13:01;7.30;;;3.10;;
8665;SDS011;4370;48.916;8.380;2023-04-15T11:15:29;6.60;;;3.37;;
8665;SDS011;4370;48.916;8.380;2023-04-15T11:18:15;7.43;;;3.43;;
8665;SDS011;4370;48.916;8.380;2023-04-15T11:20:52;6.77;;;3.07;;
8665;SDS011;4370;48.916;8.380;2023-04-15T11:23:31;4.67;;;2.80;;
8665;SDS011;4370;48.916;8.380;2023-04-15T11:26:02;7.77;;;3.13;;
8665;SDS011;4370;48.916;8.380;2023-04-15T11:28:31;6.43;;;3.30;;
8665;SDS011;4370;48.916;8.380;2023-04-15T11:30:57;7.80;;;3.47;;
8665;SDS011;4370;48.916;8.380;2023-04-15T11:33:24;7.17;;;3.60;;
8665;SDS011;4370;48.916;8.380;2023-04-15T11:35:51;6.33;;;3.67;;
8665;SDS011;4370;48.916;8.380;2023-04-15T11:38:18;7.70;;;3.40;;
8665;SDS011;4370;48.916;8.380;2023-04-15T11:40:43;6.00;;;3.40;;
8665;SDS011;4370;48.916;8.380;2023-04-15T11:43:14;7.50;;;3.17;;
8665;SDS011;4370;48.916;8.380;2023-04-15T11:45:49;8.20;;;3.27;;
8665;SDS011;4370;48.916;8.380;2023-04-15T11:48:21;8.53;;;3.20;;
8665;SDS011;4370;48.916;8.380;2023-04-15T11:50:58;7.97;;;3.10;;
8665;SDS011;4370;48.916;8.380;2023-04-15T11:56:06;4.37;;;2.77;;
8665;SDS011;4370;48.916;8.380;2023-04-15T11:58:34;5.00;;;3.40;;
8665;SDS011;4370;48.916;8.380;2023-04-15T12:01:04;6.00;;;2.70;;
8665;SDS011;4370;48.916;8.380;2023-04-15T12:03:40;5.73;;;2.70;;
8665;SDS011;4370;48.916;8.380;2023-04-15T12:06:11;6.30;;;2.37;;
8665;SDS011;4370;48.916;8.380;2023-04-15T12:13:56;5.67;;;2.40;;
8665;SDS011;4370;48.916;8.380;2023-04-15T12:16:36;4.73;;;2.53;;
8665;SDS011;4370;48.916;8.380;2023-04-15T12:19:13;6.60;;;2.40;;
8665;SDS011;4370;48.916;8.380;2023-04-15T12:21:41;3.80;;;2.70;;
8665;SDS011;4370;48.916;8.380;2023-04-15T12:24:09;7.40;;;3.13;;
8665;SDS011;4370;48.916;8.380;2023-04-15T12:29:16;4.53;;;2.53;;
8665;SDS011;4370;48.916;8.380;2023-04-15T12:31:48;4.43;;;2.47;;
8665;SDS011;4370;48.916;8.380;2023-04-15T12:34:42;5.13;;;2.33;;
8665;SDS011;4370;48.916;8.380;2023-04-15T12:37:17;5.17;;;2.80;;
8665;SDS011;4370;48.916;8.380;2023-04-15T12:39:43;7.43;;;2.63;;
8665;SDS011;4370;48.916;8.380;2023-04-15T12:42:11;6.10;;;2.90;;
8665;SDS011;4370;48.916;8.380;2023-04-15T12:44:37;6.73;;;2.90;;
8665;SDS011;4370;48.916;8.380;2023-04-15T12:47:03;4.27;;;2.73;;
8665;SDS011;4370;48.916;8.380;2023-04-15T12:49:29;7.63;;;3.00;;
8665;SDS011;4370;48.916;8.380;2023-04-15T12:51:57;5.90;;;2.40;;
8665;SDS011;4370;48.916;8.380;2023-04-15T12:54:24;5.73;;;3.00;;
8665;SDS011;4370;48.916;8.380;2023-04-15T12:56:51;6.10;;;2.40;;
8665;SDS011;4370;48.916;8.380;2023-04-15T12:59:17;5.53;;;3.03;;
8665;SDS011;4370;48.916;8.380;2023-04-15T13:01:43;4.47;;;2.70;;
8665;SDS011;4370;48.916;8.380;2023-04-15T13:04:09;4.07;;;3.00;;
8665;SDS011;4370;48.916;8.380;2023-04-15T13:06:35;5.33;;;3.30;;
8665;SDS011;4370;48.916;8.380;2023-04-15T13:09:01;5.57;;;2.60;;
8665;SDS011;4370;48.916;8.380;2023-04-15T13:11:27;8.03;;;2.80;;
8665;SDS011;4370;48.916;8.380;2023-04-15T13:14:00;3.90;;;2.60;;
8665;SDS011;4370;48.916;8.380;2023-04-15T13:16:27;7.73;;;3.13;;
8665;SDS011;4370;48.916;8.380;2023-04-15T13:18:53;4.33;;;2.67;;
8665;SDS011;4370;48.916;8.380;2023-04-15T13:21:19;4.67;;;2.50;;
8665;SDS011;4370;48.916;8.380;2023-04-15T13:23:45;3.33;;;2.23;;
8665;SDS011;4370;48.916;8.380;2023-04-15T13:26:12;6.00;;;3.00;;
8665;SDS011;4370;48.916;8.380;2023-04-15T13:28:38;3.80;;;2.70;;
8665;SDS011;4370;48.916;8.380;2023-04-15T13:31:04;5.83;;;2.60;;
8665;SDS011;4370;48.916;8.380;2023-04-15T13:33:30;4.03;;;2.33;;
8665;SDS011;4370;48.916;8.380;2023-04-15T13:35:56;4.80;;;2.30;;
8665;SDS011;4370;48.916;8.380;2023-04-15T13:38:23;3.70;;;2.50;;
8665;SDS011;4370;48.916;8.380;2023-04-15T13:40:49;5.80;;;2.70;;
8665;SDS011;4370;48.916;8.380;2023-04-15T13:43:14;4.07;;;2.53;;
8665;SDS011;4370;48.916;8.380;2023-04-15T13:45:41;5.90;;;2.50;;
8665;SDS011;4370;48.916;8.380;2023-04-15T13:48:07;4.17;;;2.80;;
8665;SDS011;4370;48.916;8.380;2023-04-15T13:50:32;4.50;;;2.63;;
8665;SDS011;4370;48.916;8.380;2023-04-15T13:52:58;6.90;;;2.67;;
8665;SDS011;4370;48.916;8.380;2023-04-15T13:55:24;3.90;;;2.17;;
8665;SDS011;4370;48.916;8.380;2023-04-15T13:57:50;5.50;;;2.07;;
8665;SDS011;4370;48.916;8.380;2023-04-15T14:00:16;3.03;;;2.40;;
8665;SDS011;4370;48.916;8.380;2023-04-15T14:02:42;4.50;;;2.67;;
8665;SDS011;4370;48.916;8.380;2023-04-15T14:05:09;4.70;;;2.63;;
8665;SDS011;4370;48.916;8.380;2023-04-15T14:07:35;4.47;;;2.70;;
8665;SDS011;4370;48.916;8.380;2023-04-15T14:10:01;5.53;;;2.80;;
8665;SDS011;4370;48.916;8.380;2023-04-15T14:12:27;4.07;;;2.73;;
8665;SDS011;4370;48.916;8.380;2023-04-15T14:14:52;4.13;;;3.00;;
8665;SDS011;4370;48.916;8.380;2023-04-15T14:17:18;5.10;;;3.13;;
8665;SDS011;4370;48.916;8.380;2023-04-15T14:19:44;7.07;;;3.27;;
8665;SDS011;4370;48.916;8.380;2023-04-15T14:22:10;8.63;;;3.27;;
8665;SDS011;4370;48.916;8.380;2023-04-15T14:24:36;6.33;;;2.77;;
8665;SDS011;4370;48.916;8.380;2023-04-15T14:27:02;6.73;;;3.10;;
8665;SDS011;4370;48.916;8.380;2023-04-15T14:29:27;5.33;;;3.10;;
8665;SDS011;4370;48.916;8.380;2023-04-15T14:31:53;7.57;;;3.07;;
8665;SDS011;4370;48.916;8.380;2023-04-15T14:34:21;5.77;;;3.00;;
8665;SDS011;4370;48.916;8.380;2023-04-15T14:36:49;6.60;;;2.77;;
8665;SDS011;4370;48.916;8.380;2023-04-15T14:39:15;5.40;;;2.80;;
8665;SDS011;4370;48.916;8.380;2023-04-15T14:41:40;4.00;;;2.70;;
8665;SDS011;4370;48.916;8.380;2023-04-15T14:44:06;7.60;;;2.87;;
8665;SDS011;4370;48.916;8.380;2023-04-15T14:46:33;6.03;;;3.10;;
8665;SDS011;4370;48.916;8.380;2023-04-15T14:48:59;7.20;;;3.00;;
8665;SDS011;4370;48.916;8.380;2023-04-15T14:51:25;4.13;;;2.50;;
8665;SDS011;4370;48.916;8.380;2023-04-15T14:53:51;7.00;;;2.60;;
8665;SDS011;4370;48.916;8.380;2023-04-15T14:56:17;4.30;;;2.30;;
8665;SDS011;4370;48.916;8.380;2023-04-15T14:58:42;5.17;;;2.30;;
8665;SDS011;4370;48.916;8.380;2023-04-15T15:01:08;4.77;;;2.50;;
8665;SDS011;4370;48.916;8.380;2023-04-15T15:03:34;4.20;;;2.10;;
8665;SDS011;4370;48.916;8.380;2023-04-15T15:06:00;3.00;;;2.20;;
8665;SDS011;4370;48.916;8.380;2023-04-15T15:08:27;3.50;;;1.90;;
8665;SDS011;4370;48.916;8.380;2023-04-15T15:10:53;5.67;;;2.27;;
8665;SDS011;4370;48.916;8.380;2023-04-15T15:13:19;5.93;;;2.53;;
8665;SDS011;4370;48.916;8.380;2023-04-15T15:15:45;4.53;;;1.90;;
8665;SDS011;4370;48.916;8.380;2023-04-15T15:18:13;6.30;;;2.03;;
8665;SDS011;4370;48.916;8.380;2023-04-15T15:20:40;3.47;;;1.90;;
8665;SDS011;4370;48.916;8.380;2023-04-15T15:23:06;3.80;;;2.00;;
8665;SDS011;4370;48.916;8.380;2023-04-15T15:25:31;2.33;;;1.70;;
8665;SDS011;4370;48.916;8.380;2023-04-15T15:27:57;2.93;;;1.60;;
8665;SDS011;4370;48.916;8.380;2023-04-15T15:30:23;4.13;;;1.80;;
8665;SDS011;4370;48.916;8.380;2023-04-15T15:32:49;3.37;;;1.73;;
8665;SDS011;4370;48.916;8.380;2023-04-15T15:35:15;2.97;;;1.47;;
8665;SDS011;4370;48.916;8.380;2023-04-15T15:37:41;4.63;;;1.70;;
8665;SDS011;4370;48.916;8.380;2023-04-15T15:40:07;2.77;;;1.80;;
8665;SDS011;4370;48.916;8.380;2023-04-15T15:42:33;3.27;;;1.40;;